Sebewaing, Michigan
Current Conditions -  °F | °C
As of 2:05 PM on Friday 28 Nov 2014 (Local Time) from KCFS Reporting Station
Overcast Overcast  
Wind Chill: 18°   Ceiling: 6000
Heat Index: 25°   Visibility: 10mi
Dew Point: 12°   Wind: 6mph
Humidity: 59%   Direction: 190°S
Pressure: 30.19"   Gusts: NA
Location:  43.73°N, 83.45°W
Report Text: KCFS 281905Z AUTO 19005KT 10SM SCT033 OVC060 M04/M11 A3019 RMK AO2
Loading
Personal Weather Stations






























Interactive Weather Map New forecast layout! Learn more

10-Day Weather Forecast

Advertisements
Track Severe Weather on mobile